Time;durP1;ratioP1;P1;durP2;ratioP2;P2;SDS_P1;SDS_P2;PMS_P1;PMS_P2;Temp;Humidity;BMP_temperature;BMP_pressure;BME280_temperature;BME280_humidity;BME280_pressure;Samples;Min_cycle;Max_cycle;Signal;HPM_P1;HPM_P2
2023/03/10 00:02:04;;;;;;;11.32;6.97;;;;;;;5.97;74.52;98923.06;5002482;28;20095;-41
2023/03/10 00:04:30;;;;;;;11.75;7.35;;;;;;;6.08;74.56;98911.84;5002618;28;20030;-41
2023/03/10 00:06:55;;;;;;;14.27;7.28;;;;;;;6.21;74.02;98907.53;4999540;28;20038;-41
2023/03/10 00:09:20;;;;;;;12.20;7.40;;;;;;;6.21;74.41;98906.66;5004155;28;20030;-40
2023/03/10 00:11:46;;;;;;;12.52;7.00;;;;;;;6.27;73.35;98923.06;5000832;28;20141;-43
2023/03/10 00:14:12;;;;;;;11.68;7.22;;;;;;;6.59;73.28;98927.34;5004595;28;20404;-42
2023/03/10 00:16:37;;;;;;;10.60;6.70;;;;;;;6.69;72.54;98922.13;5002233;28;20034;-41
2023/03/10 00:19:03;;;;;;;11.95;7.22;;;;;;;6.63;72.74;98924.72;5004825;28;20034;-40
2023/03/10 00:21:30;;;;;;;11.95;7.30;;;;;;;6.65;72.68;98912.63;5002489;28;20026;-44
2023/03/10 00:23:57;;;;;;;11.52;7.07;;;;;;;6.34;73.48;98917.00;4999341;28;20522;-42
2023/03/10 00:26:24;;;;;;;12.07;7.30;;;;;;;6.45;73.29;98906.66;5003358;28;20034;-41
2023/03/10 00:28:50;;;;;;;13.00;7.40;;;;;;;6.31;73.86;98909.25;5001225;28;20057;-40
2023/03/10 00:31:19;;;;;;;12.65;7.25;;;;;;;6.33;73.75;98902.34;5005825;28;20115;-42
2023/03/10 00:33:44;;;;;;;12.32;7.75;;;;;;;6.32;73.95;98905.78;4999019;28;20515;-41
2023/03/10 00:36:15;;;;;;;13.23;7.53;;;;;;;6.32;73.76;98898.03;5001693;28;20030;-43
2023/03/10 00:38:42;;;;;;;12.55;7.35;;;;;;;6.04;74.86;98888.53;4997908;28;20022;-46
2023/03/10 00:41:12;;;;;;;11.13;6.93;;;;;;;6.56;73.10;98896.25;5001227;28;20068;-42
2023/03/10 00:43:37;;;;;;;12.85;7.25;;;;;;;6.74;72.40;98885.84;4997628;28;20083;-42
2023/03/10 00:46:03;;;;;;;14.10;7.63;;;;;;;6.86;72.13;98889.28;5001291;28;20408;-41
2023/03/10 00:48:29;;;;;;;12.55;7.43;;;;;;;6.64;72.95;98884.16;5001997;28;20030;-41
2023/03/10 00:50:55;;;;;;;13.23;7.85;;;;;;;6.56;73.71;98891.09;4998508;28;20030;-41
2023/03/10 00:53:21;;;;;;;11.68;7.32;;;;;;;6.75;72.38;98891.03;5005944;28;20117;-41
2023/03/10 00:56:10;;;;;;;11.93;7.18;;;;;;;6.35;73.65;98891.97;5001870;28;20554;-41
2023/03/10 00:58:36;;;;;;;12.13;7.25;;;;;;;6.46;73.75;98887.66;5002636;28;20036;-41
2023/03/10 01:01:03;;;;;;;12.05;7.07;;;;;;;6.57;73.04;98885.91;5006263;28;20029;-39
2023/03/10 01:03:29;;;;;;;12.98;7.50;;;;;;;6.78;72.24;98880.66;5003436;28;20040;-40
2023/03/10 01:05:55;;;;;;;12.15;7.47;;;;;;;6.70;72.75;98879.84;4998124;28;20036;-43
2023/03/10 01:08:21;;;;;;;13.38;7.07;;;;;;;6.69;72.71;98874.66;5002824;28;20041;-42
2023/03/10 01:10:47;;;;;;;13.30;7.30;;;;;;;6.44;73.50;98874.72;5001124;28;20037;-41
2023/03/10 01:13:14;;;;;;;13.00;7.15;;;;;;;6.63;72.91;98865.19;5006583;28;20037;-43
2023/03/10 01:15:40;;;;;;;13.45;7.85;;;;;;;6.49;73.61;98867.81;5002104;28;20025;-40
2023/03/10 01:18:06;;;;;;;11.95;7.00;;;;;;;6.43;73.08;98867.81;5005693;28;20042;-43
2023/03/10 01:20:33;;;;;;;13.82;7.40;;;;;;;6.46;73.18;98859.19;4988709;28;20029;-43
2023/03/10 01:22:58;;;;;;;13.48;7.82;;;;;;;6.27;74.47;98868.72;5000412;28;20355;-41
2023/03/10 01:25:24;;;;;;;12.15;7.28;;;;;;;6.46;73.23;98854.00;5004917;28;20034;-44
2023/03/10 01:27:49;;;;;;;13.05;7.35;;;;;;;6.15;73.94;98853.22;5000796;28;20099;-44
2023/03/10 01:30:15;;;;;;;14.07;7.85;;;;;;;6.32;73.36;98861.81;5005318;28;20037;-41
2023/03/10 01:32:40;;;;;;;13.07;7.38;;;;;;;6.37;73.72;98865.25;5001749;28;20037;-41
2023/03/10 01:35:06;;;;;;;13.20;7.72;;;;;;;6.51;73.22;98860.91;5006155;28;20093;-41
2023/03/10 01:37:32;;;;;;;12.82;7.18;;;;;;;6.68;72.41;98853.06;5003650;28;20044;-41
2023/03/10 01:39:57;;;;;;;11.38;7.22;;;;;;;6.32;73.84;98842.81;5001011;28;20565;-41
2023/03/10 01:42:22;;;;;;;12.48;7.45;;;;;;;6.42;73.08;98842.78;5004393;28;20034;-41
2023/03/10 01:45:09;;;;;;;12.25;7.40;;;;;;;6.33;73.67;98842.81;5001399;28;20228;-41
2023/03/10 01:47:34;;;;;;;13.05;7.50;;;;;;;6.41;73.36;98838.47;5002046;28;20207;-43
2023/03/10 01:50:01;;;;;;;12.55;7.70;;;;;;;6.45;73.57;98835.03;5003839;28;20052;-44
2023/03/10 01:52:30;;;;;;;12.38;7.55;;;;;;;6.41;73.49;98835.03;5005269;28;20076;-41
2023/03/10 01:55:05;;;;;;;11.85;7.68;;;;;;;6.35;73.44;98820.38;5005384;28;20050;-42
2023/03/10 01:57:32;;;;;;;;;;;;;;;6.62;72.40;98822.03;5005695;28;20037;-42
2023/03/10 01:59:59;;;;;;;10.93;6.55;;;;;;;6.39;73.66;98834.19;5001015;28;19917;-42
2023/03/10 02:02:25;;;;;;;11.85;7.25;;;;;;;6.48;73.30;98836.72;5004538;28;20084;-41
2023/03/10 02:04:53;;;;;;;11.20;6.93;;;;;;;6.62;72.57;98822.03;5001388;28;20042;-41
2023/03/10 02:07:22;;;;;;;12.52;7.35;;;;;;;6.56;72.73;98808.25;5005441;28;20121;-41
2023/03/10 02:09:49;;;;;;;12.77;7.03;;;;;;;5.95;74.29;98801.50;5001602;28;20041;-44
2023/03/10 02:12:15;;;;;;;11.40;6.95;;;;;;;6.51;73.04;98806.53;5004632;28;20034;-42
2023/03/10 02:14:43;;;;;;;11.82;7.07;;;;;;;6.63;72.72;98797.00;5001419;28;20034;-41
2023/03/10 02:17:15;;;;;;;12.68;7.22;;;;;;;6.43;72.95;98804.84;5005418;28;20033;-38
2023/03/10 02:20:20;;;;;;;11.73;7.32;;;;;;;6.32;73.46;98797.09;5000295;28;20030;-42
2023/03/10 02:22:47;;;;;;;11.77;7.00;;;;;;;6.75;72.57;98795.22;4969608;28;20045;-41
2023/03/10 02:25:30;;;;;;;11.80;7.05;;;;;;;6.50;72.34;98798.78;5003573;28;20079;-39
2023/03/10 02:27:56;;;;;;;12.38;6.63;;;;;;;6.40;73.43;98797.91;5000697;28;20025;-41
2023/03/10 02:30:26;;;;;;;11.88;7.10;;;;;;;6.61;72.23;98801.31;5003892;28;20049;-43
2023/03/10 02:33:00;;;;;;;11.27;6.70;;;;;;;6.48;73.07;98793.59;4999860;28;20042;-42
2023/03/10 02:35:26;;;;;;;11.48;7.05;;;;;;;6.09;73.46;98789.41;5003841;28;20042;-42
2023/03/10 02:37:51;;;;;;;11.48;6.97;;;;;;;6.31;73.79;98795.38;4999837;28;20045;-42
2023/03/10 02:40:39;;;;;;;11.65;7.18;;;;;;;6.53;73.30;98793.56;5003779;28;20045;-41
2023/03/10 02:43:27;;;;;;;12.20;7.03;;;;;;;6.50;72.70;98791.88;5001089;28;20042;-41
2023/03/10 02:45:58;;;;;;;10.93;6.57;;;;;;;6.32;73.48;98785.88;5003216;28;21844;-39
2023/03/10 02:48:28;;;;;;;12.70;7.18;;;;;;;6.62;72.53;98782.31;5007965;28;20038;-41
2023/03/10 02:50:55;;;;;;;10.00;6.55;;;;;;;6.42;73.27;98785.84;5000615;28;20410;-43
2023/03/10 02:53:24;;;;;;;11.20;6.85;;;;;;;6.39;73.22;98782.44;5003643;28;20121;-39
2023/03/10 02:55:49;;;;;;;12.00;7.13;;;;;;;6.41;73.36;98778.09;5000031;28;20036;-42
2023/03/10 02:58:15;;;;;;;10.60;6.60;;;;;;;6.25;73.35;98777.28;5003635;28;20034;-42
2023/03/10 03:00:44;;;;;;;12.20;7.30;;;;;;;6.20;74.09;98767.81;5000088;28;20034;-46
2023/03/10 03:03:12;;;;;;;11.68;6.63;;;;;;;6.34;73.55;98768.66;5005705;28;20326;-40
2023/03/10 03:05:38;;;;;;;11.40;6.70;;;;;;;6.42;73.34;98779.81;5003941;28;20426;-44
2023/03/10 03:08:05;;;;;;;11.32;6.93;;;;;;;6.45;72.86;98783.25;5007387;28;20125;-40
2023/03/10 03:10:32;;;;;;;11.60;6.57;;;;;;;6.36;73.35;98775.53;5008098;28;20492;-42
2023/03/10 03:12:57;;;;;;;12.00;7.38;;;;;;;6.19;74.20;98776.44;5002806;28;20116;-43
2023/03/10 03:15:22;;;;;;;11.68;7.00;;;;;;;6.36;73.23;98769.47;5003101;28;20117;-43
2023/03/10 03:17:48;;;;;;;13.02;7.22;;;;;;;6.38;73.70;98765.16;4999380;28;20447;-42
2023/03/10 03:20:14;;;;;;;12.73;6.85;;;;;;;6.09;74.20;98762.69;5003126;28;20033;-42
2023/03/10 03:22:44;;;;;;;11.23;6.60;;;;;;;6.40;73.30;98763.44;5000413;28;20116;-44
2023/03/10 03:25:12;;;;;;;11.43;6.50;;;;;;;6.43;73.73;98756.50;5005008;28;20566;-42
2023/03/10 03:27:37;;;;;;;11.07;6.55;;;;;;;6.58;73.08;98753.03;4999224;28;20037;-42
2023/03/10 03:30:10;;;;;;;12.60;6.53;;;;;;;6.80;72.16;98758.94;5002824;28;20041;-42
2023/03/10 03:32:36;;;;;;;12.10;6.65;;;;;;;6.75;71.85;98768.47;4999316;28;20488;-44
2023/03/10 03:35:03;;;;;;;10.77;6.28;;;;;;;6.71;72.31;98759.00;5003631;28;20100;-45
2023/03/10 03:37:28;;;;;;;10.18;6.38;;;;;;;6.50;72.77;98747.88;5003551;28;20095;-43
2023/03/10 03:39:54;;;;;;;12.27;6.45;;;;;;;6.71;72.59;98746.88;4999045;28;20128;-42
2023/03/10 03:42:20;;;;;;;11.25;6.45;;;;;;;6.45;73.25;98759.97;5002615;28;20120;-41
2023/03/10 03:44:45;;;;;;;12.93;7.03;;;;;;;6.72;72.32;98758.09;4998833;28;20041;-43
2023/03/10 03:47:11;;;;;;;12.00;6.40;;;;;;;6.66;72.24;98764.19;5002536;28;20404;-41
2023/03/10 03:49:37;;;;;;;11.88;6.63;;;;;;;6.55;72.67;98768.53;4999257;28;20056;-44
2023/03/10 03:52:04;;;;;;;13.20;6.60;;;;;;;6.26;73.57;98762.63;5002671;28;20034;-39
2023/03/10 03:54:29;;;;;;;10.48;6.18;;;;;;;6.41;73.39;98765.13;5003186;28;20034;-41
2023/03/10 03:56:55;;;;;;;10.48;6.25;;;;;;;5.97;74.07;98753.22;4999277;28;20030;-42
2023/03/10 03:59:20;;;;;;;10.50;5.68;;;;;;;6.10;74.41;98754.03;5003251;28;20064;-44
2023/03/10 04:01:45;;;;;;;10.48;6.05;;;;;;;6.55;73.01;98755.59;5000372;28;20033;-42
2023/03/10 04:04:11;;;;;;;11.38;6.35;;;;;;;6.47;73.49;98754.75;5007711;28;20073;-42
2023/03/10 04:06:36;;;;;;;9.88;5.90;;;;;;;6.19;73.68;98742.81;5005409;28;20483;-42
2023/03/10 04:09:01;;;;;;;10.65;5.82;;;;;;;6.36;73.52;98749.63;5008814;28;20044;-42
2023/03/10 04:11:27;;;;;;;9.40;5.68;;;;;;;6.38;73.62;98729.81;5008419;28;20173;-43
2023/03/10 04:13:52;;;;;;;10.07;5.50;;;;;;;6.21;73.45;98721.25;4998613;28;20065;-43
2023/03/10 04:16:17;;;;;;;9.93;5.70;;;;;;;6.33;73.30;98731.56;4984556;28;20040;-43
2023/03/10 04:18:43;;;;;;;9.15;5.60;;;;;;;6.27;73.75;98739.34;5000893;28;20105;-44
2023/03/10 04:21:09;;;;;;;9.15;5.30;;;;;;;6.30;74.06;98759.16;5003814;28;20036;-42
2023/03/10 04:23:34;;;;;;;8.48;5.15;;;;;;;6.42;73.16;98741.84;4999455;28;20034;-47
2023/03/10 04:25:59;;;;;;;9.43;5.60;;;;;;;6.52;72.99;98760.81;5003647;28;20445;-42
2023/03/10 04:28:25;;;;;;;9.25;5.30;;;;;;;6.36;72.88;98752.22;5002682;28;20045;-42
2023/03/10 04:30:50;;;;;;;9.90;5.60;;;;;;;6.33;72.87;98759.16;5001019;28;20041;-41
2023/03/10 04:33:16;;;;;;;9.73;5.20;;;;;;;6.61;72.71;98758.16;5006256;28;20056;-42
2023/03/10 04:35:43;;;;;;;9.52;5.35;;;;;;;6.35;73.28;98750.50;4999486;28;20080;-44
2023/03/10 04:38:09;;;;;;;8.75;5.05;;;;;;;6.10;73.78;98751.44;5002797;28;20056;-43
2023/03/10 04:40:34;;;;;;;8.82;4.80;;;;;;;6.07;74.65;98746.28;5002147;28;20061;-42
2023/03/10 04:43:00;;;;;;;9.80;5.10;;;;;;;5.80;75.31;98739.41;5005831;28;20026;-44
2023/03/10 04:45:26;;;;;;;9.52;5.18;;;;;;;5.98;74.40;98747.16;5002406;28;20022;-43
2023/03/10 04:47:51;;;;;;;9.63;4.95;;;;;;;6.02;74.54;98745.44;4998048;28;20080;-42
2023/03/10 04:50:17;;;;;;;9.27;4.88;;;;;;;5.66;75.54;98736.00;5001863;28;20038;-41
2023/03/10 04:52:45;;;;;;;8.35;4.82;;;;;;;6.06;74.92;98740.25;4980006;28;20030;-45
2023/03/10 04:55:11;;;;;;;9.38;4.95;;;;;;;6.20;73.91;98737.63;5001729;28;20088;-43
2023/03/10 04:57:37;;;;;;;10.85;5.30;;;;;;;6.18;74.08;98736.75;4998080;28;20392;-42
2023/03/10 05:00:06;;;;;;;10.38;4.55;;;;;;;6.23;74.00;98724.66;5001756;28;20052;-41
2023/03/10 05:02:32;;;;;;;9.13;4.93;;;;;;;6.20;73.87;98729.00;5001482;28;20034;-46
2023/03/10 05:04:57;;;;;;;12.00;5.43;;;;;;;6.24;73.59;98723.81;5001221;28;20033;-42
2023/03/10 05:07:23;;;;;;;11.43;5.47;;;;;;;6.29;73.93;98731.53;5004897;28;20045;-41
2023/03/10 05:09:48;;;;;;;11.48;5.30;;;;;;;6.10;74.60;98731.59;4997881;28;20407;-42
2023/03/10 05:12:14;;;;;;;11.20;5.57;;;;;;;6.02;74.70;98735.09;5001444;28;20511;-41
2023/03/10 05:14:39;;;;;;;10.80;5.78;;;;;;;6.44;73.44;98721.16;4998007;28;20060;-41
2023/03/10 05:17:05;;;;;;;12.13;5.75;;;;;;;6.32;73.49;98721.19;5002419;28;20087;-41
2023/03/10 05:19:33;;;;;;;11.35;5.85;;;;;;;6.57;72.94;98714.19;5001897;28;20033;-41
2023/03/10 05:21:59;;;;;;;13.50;5.90;;;;;;;6.61;72.88;98714.16;4998151;28;20033;-41
2023/03/10 05:24:24;;;;;;;11.45;5.38;;;;;;;6.31;73.55;98715.16;5001562;28;20511;-43
2023/03/10 05:26:50;;;;;;;10.55;5.90;;;;;;;6.19;73.84;98716.94;4998195;28;20041;-42
2023/03/10 05:29:15;;;;;;;11.23;5.55;;;;;;;6.62;72.75;98718.47;5005031;28;20029;-42
2023/03/10 05:31:41;;;;;;;11.48;5.50;;;;;;;6.40;73.29;98720.28;5001224;28;20041;-40
2023/03/10 05:34:06;;;;;;;11.88;5.55;;;;;;;6.50;72.82;98728.88;5004520;28;20084;-41
2023/03/10 05:36:31;;;;;;;12.57;5.75;;;;;;;6.14;73.70;98731.63;5004745;28;20440;-42
2023/03/10 05:38:56;;;;;;;11.35;5.50;;;;;;;6.29;74.08;98723.78;5001405;28;20033;-42
2023/03/10 05:41:22;;;;;;;12.77;5.43;;;;;;;6.25;73.94;98727.25;5004665;28;20037;-41
2023/03/10 05:43:47;;;;;;;11.25;5.18;;;;;;;6.48;72.67;98720.25;5000859;28;20041;-42
2023/03/10 05:46:12;;;;;;;11.45;5.03;;;;;;;6.00;74.51;98732.50;5004745;28;20045;-40
2023/03/10 05:48:38;;;;;;;13.05;5.40;;;;;;;5.89;74.75;98729.09;5000711;28;20129;-39
2023/03/10 05:51:06;;;;;;;12.43;5.28;;;;;;;5.99;74.57;98735.97;5004183;28;20038;-41
2023/03/10 05:53:33;;;;;;;13.77;5.85;;;;;;;5.87;75.14;98729.91;5004372;28;20030;-39
2023/03/10 05:55:58;;;;;;;13.45;5.78;;;;;;;6.30;73.22;98733.28;5000845;28;20467;-39
2023/03/10 05:58:25;;;;;;;12.07;5.57;;;;;;;6.03;74.21;98732.50;5004080;28;20054;-40
2023/03/10 06:00:51;;;;;;;13.05;5.60;;;;;;;6.21;73.81;98728.16;5000618;28;20062;-39
2023/03/10 06:03:18;;;;;;;13.95;5.50;;;;;;;6.44;73.12;98734.09;5004025;28;20473;-41
2023/03/10 06:05:43;;;;;;;13.15;5.18;;;;;;;6.31;73.58;98727.22;5000515;28;20511;-39
2023/03/10 06:08:09;;;;;;;10.68;5.10;;;;;;;6.35;73.44;98737.56;5004386;28;20034;-41
2023/03/10 06:10:34;;;;;;;11.77;5.63;;;;;;;6.27;73.38;98734.16;5001043;28;20065;-40
2023/03/10 06:13:00;;;;;;;12.55;5.63;;;;;;;6.36;73.38;98743.59;5004372;28;20044;-40
2023/03/10 06:15:25;;;;;;;13.98;6.00;;;;;;;6.32;74.03;98732.41;5004355;28;20099;-40
2023/03/10 06:17:50;;;;;;;13.05;5.95;;;;;;;5.98;74.40;98731.63;5000754;28;20488;-40
2023/03/10 06:20:16;;;;;;;13.00;5.60;;;;;;;6.18;74.35;98729.00;5004758;28;20029;-39
2023/03/10 06:22:41;;;;;;;13.45;5.60;;;;;;;5.94;74.74;98729.94;5000629;28;20472;-41
2023/03/10 06:25:07;;;;;;;13.40;5.03;;;;;;;6.05;74.83;98727.31;5003871;28;20084;-39
2023/03/10 06:27:33;;;;;;;12.18;5.35;;;;;;;6.06;74.70;98732.50;5001974;28;20096;-39
2023/03/10 06:29:59;;;;;;;14.10;5.70;;;;;;;6.34;74.10;98733.25;5003523;28;20099;-40
2023/03/10 06:32:24;;;;;;;12.40;5.18;;;;;;;6.46;73.41;98728.03;5004563;28;20034;-39
2023/03/10 06:34:50;;;;;;;13.20;5.53;;;;;;;6.28;74.53;98732.44;5000510;28;20129;-41
2023/03/10 06:37:15;;;;;;;10.75;4.63;;;;;;;6.61;73.10;98731.41;5006585;28;20492;-39
2023/03/10 06:39:41;;;;;;;9.85;4.53;;;;;;;6.26;74.10;98742.78;5001672;28;20034;-39
2023/03/10 06:42:07;;;;;;;11.23;4.50;;;;;;;6.28;73.97;98743.63;5003400;28;20507;-39
2023/03/10 06:44:33;;;;;;;10.05;4.53;;;;;;;6.01;75.11;98744.59;5001871;28;20026;-44
2023/03/10 06:47:00;;;;;;;11.25;4.63;;;;;;;6.21;74.46;98738.50;5008646;28;20034;-39
2023/03/10 06:49:29;;;;;;;8.60;4.05;;;;;;;6.09;74.49;98736.81;5012205;28;20404;-41
2023/03/10 06:51:55;;;;;;;10.95;4.25;;;;;;;6.40;73.82;98742.75;5004474;28;20087;-41
2023/03/10 06:54:21;;;;;;;9.40;4.20;;;;;;;6.73;72.75;98739.97;5008388;28;20124;-38
2023/03/10 06:56:47;;;;;;;9.98;4.32;;;;;;;6.55;73.99;98729.72;5000602;28;20096;-39
2023/03/10 06:59:12;;;;;;;9.52;4.07;;;;;;;6.45;73.81;98736.69;5004649;28;20514;-42
2023/03/10 07:01:38;;;;;;;9.73;4.47;;;;;;;6.23;74.58;98745.38;5000678;28;20038;-41
2023/03/10 07:04:03;;;;;;;9.18;4.20;;;;;;;6.14;74.78;98740.25;5003348;28;20033;-39
2023/03/10 07:06:29;;;;;;;10.85;4.28;;;;;;;6.40;74.58;98738.41;5004468;28;20537;-38
2023/03/10 07:08:55;;;;;;;9.13;4.13;;;;;;;6.12;75.06;98734.19;4981758;28;20033;-40
2023/03/10 07:11:21;;;;;;;8.43;3.75;;;;;;;6.05;75.29;98741.13;5004856;28;20120;-40
2023/03/10 07:13:46;;;;;;;11.70;3.95;;;;;;;6.64;73.79;98742.63;5001982;28;20407;-40
2023/03/10 07:16:12;;;;;;;8.90;3.90;;;;;;;6.72;73.41;98743.44;5006579;28;20038;-42
2023/03/10 07:18:37;;;;;;;8.85;3.95;;;;;;;6.74;73.21;98741.72;5003130;28;20030;-40
2023/03/10 07:21:10;;;;;;;9.15;4.13;;;;;;;7.05;72.32;98734.59;5006213;28;20037;-42
2023/03/10 07:23:35;;;;;;;8.27;3.88;;;;;;;6.82;72.83;98739.94;4999263;28;20440;-38
2023/03/10 07:26:01;;;;;;;8.25;3.85;;;;;;;6.82;73.26;98739.09;5002582;28;20029;-37
2023/03/10 07:28:27;;;;;;;8.18;3.70;;;;;;;6.97;72.92;98738.97;5002986;28;20026;-39
2023/03/10 07:30:53;;;;;;;7.65;3.80;;;;;;;6.42;73.96;98744.44;4998747;28;20048;-37
2023/03/10 07:33:19;;;;;;;7.20;3.80;;;;;;;6.48;74.13;98748.72;5002714;28;20034;-42
2023/03/10 07:35:44;;;;;;;6.82;3.75;;;;;;;6.34;74.38;98737.59;4999426;28;20042;-40
2023/03/10 07:38:10;;;;;;;7.53;3.95;;;;;;;6.42;73.91;98741.84;5003719;28;20040;-39
2023/03/10 07:40:38;;;;;;;6.38;3.45;;;;;;;6.55;74.14;98742.66;5002451;28;20578;-39
2023/03/10 07:43:04;;;;;;;6.95;3.70;;;;;;;6.80;72.85;98741.66;5007202;28;20037;-43
2023/03/10 07:45:31;;;;;;;7.32;3.38;;;;;;;6.72;73.49;98752.94;5005979;28;20404;-41
2023/03/10 07:47:57;;;;;;;9.48;3.97;;;;;;;6.83;72.86;98756.34;4981485;28;20088;-40
2023/03/10 07:50:22;;;;;;;6.88;3.55;;;;;;;6.65;73.68;98751.25;5001461;28;20034;-42
2023/03/10 07:52:48;;;;;;;6.53;3.40;;;;;;;6.74;73.71;98754.66;4998405;28;20345;-41
2023/03/10 07:55:13;;;;;;;5.97;3.50;;;;;;;6.67;73.83;98752.09;5002504;28;20120;-41
2023/03/10 07:57:39;;;;;;;6.22;3.47;;;;;;;6.32;74.35;98760.00;4998902;28;20408;-39
2023/03/10 08:00:05;;;;;;;6.55;3.60;;;;;;;6.90;73.01;98758.88;4984729;28;20036;-44
2023/03/10 08:02:30;;;;;;;6.18;3.42;;;;;;;6.65;74.08;98756.44;5001838;28;20058;-44
2023/03/10 08:04:56;;;;;;;6.50;3.50;;;;;;;6.73;73.69;98759.84;4999247;28;20069;-41
2023/03/10 08:07:22;;;;;;;6.47;3.58;;;;;;;6.84;73.37;98752.84;5002567;28;20080;-40
2023/03/10 08:09:49;;;;;;;6.40;3.50;;;;;;;6.73;73.92;98765.00;4998589;28;20036;-40
2023/03/10 08:12:15;;;;;;;5.85;3.53;;;;;;;6.78;73.62;98768.44;5002218;28;20033;-41
2023/03/10 08:14:40;;;;;;;6.35;3.60;;;;;;;6.85;73.22;98768.41;4998607;28;20045;-41
2023/03/10 08:17:06;;;;;;;6.80;3.25;;;;;;;6.71;72.99;98774.53;5003474;28;20037;-42
2023/03/10 08:19:31;;;;;;;7.45;3.75;;;;;;;6.66;73.28;98778.84;5005783;28;20069;-40
2023/03/10 08:21:56;;;;;;;6.28;3.47;;;;;;;6.47;73.77;98778.06;5008271;28;20475;-39
2023/03/10 08:24:23;;;;;;;7.07;3.30;;;;;;;6.73;73.49;98765.88;5017150;28;20037;-41
2023/03/10 08:26:48;;;;;;;7.63;3.22;;;;;;;6.61;73.90;98768.53;5011759;28;20038;-41
2023/03/10 08:29:14;;;;;;;5.60;2.75;;;;;;;6.61;73.59;98773.69;5005460;28;20449;-42
2023/03/10 08:31:40;;;;;;;5.82;3.33;;;;;;;6.91;72.69;98768.38;5003613;28;20044;-40
2023/03/10 08:34:05;;;;;;;5.90;3.15;;;;;;;6.96;72.92;98775.25;5006163;28;20109;-41
2023/03/10 08:36:30;;;;;;;5.10;2.95;;;;;;;7.00;72.40;98775.22;5005481;28;20036;-43
2023/03/10 08:38:59;;;;;;;4.63;2.90;;;;;;;6.31;74.98;98773.81;5003490;28;20040;-44
2023/03/10 08:41:26;;;;;;;4.65;2.88;;;;;;;6.46;74.20;98779.78;5001349;28;20565;-41
2023/03/10 08:43:53;;;;;;;4.15;2.70;;;;;;;6.38;74.24;98772.94;5000032;28;20563;-40
2023/03/10 08:46:19;;;;;;;4.47;2.63;;;;;;;6.37;74.66;98779.84;5004513;28;20088;-45
2023/03/10 08:48:45;;;;;;;3.80;2.30;;;;;;;6.27;74.73;98778.16;4982637;28;20053;-39
2023/03/10 08:51:11;;;;;;;4.25;2.60;;;;;;;6.08;74.75;98787.69;5001347;28;20059;-43
2023/03/10 08:53:37;;;;;;;4.43;2.70;;;;;;;6.51;74.05;98790.16;4997364;28;20129;-41
2023/03/10 08:56:04;;;;;;;4.43;2.60;;;;;;;6.60;73.67;98784.06;5001516;28;20030;-41
2023/03/10 08:58:29;;;;;;;4.13;2.58;;;;;;;6.44;74.04;98793.63;5001305;28;20038;-40
2023/03/10 09:00:54;;;;;;;5.50;2.50;;;;;;;6.58;73.67;98794.44;4997707;28;20392;-45
2023/03/10 09:03:20;;;;;;;4.38;2.63;;;;;;;6.40;73.94;98803.09;5004106;28;20038;-39
2023/03/10 09:05:45;;;;;;;4.57;2.50;;;;;;;6.24;74.67;98804.00;5001578;28;20041;-42
2023/03/10 09:08:11;;;;;;;4.00;2.50;;;;;;;6.86;73.40;98802.94;5005943;28;20044;-41
2023/03/10 09:10:41;;;;;;;5.05;2.30;;;;;;;6.82;73.10;98807.28;5001410;28;20037;-37
2023/03/10 09:13:07;;;;;;;3.45;2.38;;;;;;;6.91;72.88;98803.75;5004877;28;20121;-41
2023/03/10 09:15:33;;;;;;;4.10;2.28;;;;;;;6.41;74.50;98815.19;5004783;28;20117;-41
2023/03/10 09:18:00;;;;;;;3.47;2.10;;;;;;;6.77;73.17;98814.19;5002446;28;20451;-40
2023/03/10 09:20:26;;;;;;;4.97;2.30;;;;;;;6.79;73.21;98821.94;5005117;28;20112;-41
2023/03/10 09:22:53;;;;;;;3.85;2.20;;;;;;;7.14;72.65;98814.00;5001249;28;20484;-39
2023/03/10 09:25:18;;;;;;;3.40;2.15;;;;;;;6.91;72.71;98817.56;5005263;28;20030;-41
2023/03/10 09:27:43;;;;;;;4.78;2.50;;;;;;;6.26;74.36;98825.59;5004551;28;20500;-39
2023/03/10 09:30:10;;;;;;;4.55;2.55;;;;;;;6.62;73.79;98823.75;5008322;28;20041;-40
2023/03/10 09:32:35;;;;;;;3.95;2.42;;;;;;;6.61;73.31;98817.72;5004630;28;20066;-40
2023/03/10 09:35:00;;;;;;;3.90;2.47;;;;;;;6.80;73.09;98819.38;5007127;28;20053;-46
2023/03/10 09:37:26;;;;;;;5.20;2.47;;;;;;;6.49;73.67;98828.09;5007740;28;20030;-39
2023/03/10 09:39:52;;;;;;;4.97;2.40;;;;;;;6.49;74.00;98828.09;5001760;28;20050;-41
2023/03/10 09:42:37;;;;;;;7.03;2.55;;;;;;;6.37;74.39;98833.31;5004443;28;20575;-39
2023/03/10 09:45:18;;;;;;;4.00;2.50;;;;;;;6.60;73.42;98831.50;5000682;28;20041;-39
2023/03/10 09:47:54;;;;;;;3.45;2.10;;;;;;;6.19;74.34;98838.53;5004651;28;20034;-39
2023/03/10 09:50:33;;;;;;;3.08;2.08;;;;;;;6.26;74.14;98840.25;5001262;28;20131;-40
2023/03/10 09:53:25;;;;;;;3.22;2.10;;;;;;;6.34;73.76;98841.94;5000476;28;20029;-39
2023/03/10 09:55:52;;;;;;;3.42;2.05;;;;;;;6.43;73.87;98839.34;5000564;28;20378;-39
2023/03/10 09:58:29;;;;;;;3.20;2.10;;;;;;;6.45;74.09;98850.56;5005440;28;20037;-39
2023/03/10 10:00:54;;;;;;;3.47;2.20;;;;;;;6.31;74.25;98844.53;5002891;28;20038;-40
2023/03/10 10:03:22;;;;;;;3.75;2.13;;;;;;;6.78;72.50;98861.66;5005381;28;20422;-39
2023/03/10 10:05:51;;;;;;;3.67;2.40;;;;;;;6.66;73.10;98859.13;5000784;28;20204;-39
2023/03/10 10:08:26;;;;;;;3.20;2.10;;;;;;;6.66;73.66;98859.97;5004375;28;20204;-38
2023/03/10 10:10:54;;;;;;;3.65;2.30;;;;;;;6.25;74.28;98865.25;5000438;28;20033;-39
2023/03/10 10:13:23;;;;;;;3.55;2.40;;;;;;;6.09;73.74;98867.00;5003453;28;20113;-41
2023/03/10 10:15:58;;;;;;;4.68;2.50;;;;;;;5.98;74.58;98860.09;5001612;28;20459;-38
2023/03/10 10:18:36;;;;;;;4.07;2.33;;;;;;;6.06;74.91;98872.19;5005255;28;20117;-40
2023/03/10 10:21:08;;;;;;;4.93;2.40;;;;;;;6.31;73.80;98873.00;5001995;28;20034;-42
2023/03/10 10:23:46;;;;;;;4.22;2.53;;;;;;;6.74;73.13;98880.69;5001555;28;20030;-39
2023/03/10 10:26:17;;;;;;;4.43;2.42;;;;;;;6.41;74.13;98884.19;5006051;28;20072;-39
2023/03/10 10:29:00;;;;;;;3.67;2.50;;;;;;;6.47;73.55;98879.88;5000806;28;20026;-40
2023/03/10 10:31:30;;;;;;;4.43;2.10;;;;;;;6.55;73.25;98868.66;5003757;28;20038;-39
2023/03/10 10:33:58;;;;;;;4.50;2.38;;;;;;;6.43;73.34;98878.16;5000018;28;20052;-40
2023/03/10 10:36:29;;;;;;;3.50;2.22;;;;;;;5.73;75.39;98873.00;5003694;28;20038;-39
2023/03/10 10:38:56;;;;;;;3.75;2.17;;;;;;;6.14;74.69;98884.25;5000262;28;20065;-38
2023/03/10 10:41:27;;;;;;;3.00;2.03;;;;;;;6.18;74.24;98881.66;5003884;28;20523;-41
2023/03/10 10:43:56;;;;;;;4.53;2.10;;;;;;;6.11;74.67;98878.19;4999928;28;22892;-41
2023/03/10 10:46:28;;;;;;;4.78;2.20;;;;;;;6.63;73.19;98887.63;5003612;28;20038;-40
2023/03/10 10:49:04;;;;;;;3.60;1.88;;;;;;;6.56;73.35;98896.25;4999768;28;20030;-41
2023/03/10 10:51:32;;;;;;;3.78;2.50;;;;;;;6.57;73.36;98898.00;5003866;28;20384;-39
2023/03/10 10:54:01;;;;;;;3.47;2.20;;;;;;;6.07;74.42;98898.91;4999878;28;20025;-39
2023/03/10 10:56:27;;;;;;;3.30;1.98;;;;;;;6.24;74.44;98899.75;5003429;28;20034;-40
2023/03/10 10:59:03;;;;;;;2.60;1.80;;;;;;;5.66;75.13;98909.19;5000055;28;20088;-40
2023/03/10 11:02:01;;;;;;;3.15;1.75;;;;;;;5.85;75.55;98912.66;5004021;28;20037;-39
2023/03/10 11:04:46;;;;;;;2.92;1.73;;;;;;;5.89;74.72;98910.13;5000924;28;20030;-39
2023/03/10 11:07:18;;;;;;;2.60;1.80;;;;;;;5.97;74.54;98915.31;5000413;28;20038;-40
2023/03/10 11:09:44;;;;;;;4.03;1.70;;;;;;;6.28;74.25;98922.16;5001556;28;20470;-40
2023/03/10 11:12:20;;;;;;;2.75;1.52;;;;;;;6.09;73.89;98926.50;5004630;28;20084;-39
2023/03/10 11:14:55;;;;;;;2.78;1.75;;;;;;;5.82;75.49;98931.63;5004205;28;20037;-43
2023/03/10 11:17:29;;;;;;;2.65;1.70;;;;;;;5.94;74.80;98944.59;4999051;28;20407;-41
2023/03/10 11:20:18;;;;;;;3.85;1.77;;;;;;;6.50;73.67;98943.72;4999886;28;20125;-39
2023/03/10 11:23:02;;;;;;;2.80;1.80;;;;;;;6.41;73.90;98938.56;4999248;28;20030;-41
2023/03/10 11:25:48;;;;;;;2.55;1.65;;;;;;;5.79;74.34;98935.94;5002911;28;20045;-40
2023/03/10 11:28:20;;;;;;;4.57;1.90;;;;;;;5.86;75.18;98922.13;4998821;28;20034;-39
2023/03/10 11:30:59;;;;;;;4.63;1.77;;;;;;;6.10;74.92;98910.09;4999302;28;20512;-39
2023/03/10 11:33:41;;;;;;;5.07;1.70;;;;;;;6.47;73.57;98899.72;5002918;28;20496;-39
2023/03/10 11:36:34;;;;;;;3.05;1.80;;;;;;;5.56;74.90;98905.72;4999301;28;20508;-40
2023/03/10 11:39:30;;;;;;;3.20;2.00;;;;;;;5.77;75.61;98893.69;4999648;28;20516;-41
2023/03/10 11:42:10;;;;;;;3.80;2.00;;;;;;;6.25;74.90;98909.25;4999861;28;20061;-41